sensor_id;sensor_type;location;lat;lon;timestamp;P1;durP1;ratioP1;P2;durP2;ratioP2
42226;SDS011;27892;52.378;13.122;2023-04-19T00:00:40;5.47;;;3.63;;
42226;SDS011;27892;52.378;13.122;2023-04-19T00:03:07;4.00;;;3.60;;
42226;SDS011;27892;52.378;13.122;2023-04-19T00:05:34;3.73;;;3.33;;
42226;SDS011;27892;52.378;13.122;2023-04-19T00:08:02;3.90;;;3.00;;
42226;SDS011;27892;52.378;13.122;2023-04-19T00:10:28;2.80;;;2.60;;
42226;SDS011;27892;52.378;13.122;2023-04-19T00:12:54;3.77;;;2.90;;
42226;SDS011;27892;52.378;13.122;2023-04-19T00:15:20;4.27;;;3.50;;
42226;SDS011;27892;52.378;13.122;2023-04-19T00:17:45;3.67;;;3.10;;
42226;SDS011;27892;52.378;13.122;2023-04-19T00:20:11;5.13;;;3.50;;
42226;SDS011;27892;52.378;13.122;2023-04-19T00:22:37;5.20;;;3.47;;
42226;SDS011;27892;52.378;13.122;2023-04-19T00:25:03;6.93;;;3.23;;
42226;SDS011;27892;52.378;13.122;2023-04-19T00:27:29;3.47;;;3.10;;
42226;SDS011;27892;52.378;13.122;2023-04-19T00:29:55;4.37;;;3.10;;
42226;SDS011;27892;52.378;13.122;2023-04-19T00:32:24;3.03;;;2.77;;
42226;SDS011;27892;52.378;13.122;2023-04-19T00:34:50;3.37;;;2.83;;
42226;SDS011;27892;52.378;13.122;2023-04-19T00:37:15;3.13;;;2.87;;
42226;SDS011;27892;52.378;13.122;2023-04-19T00:39:41;4.37;;;3.17;;
42226;SDS011;27892;52.378;13.122;2023-04-19T00:42:07;3.03;;;2.70;;
42226;SDS011;27892;52.378;13.122;2023-04-19T00:44:32;3.67;;;3.03;;
42226;SDS011;27892;52.378;13.122;2023-04-19T00:46:58;3.10;;;2.80;;
42226;SDS011;27892;52.378;13.122;2023-04-19T00:49:25;3.70;;;3.30;;
42226;SDS011;27892;52.378;13.122;2023-04-19T00:51:51;3.23;;;2.97;;
42226;SDS011;27892;52.378;13.122;2023-04-19T00:54:17;3.37;;;3.07;;
42226;SDS011;27892;52.378;13.122;2023-04-19T00:56:44;3.37;;;2.80;;
42226;SDS011;27892;52.378;13.122;2023-04-19T00:59:09;4.53;;;2.97;;
42226;SDS011;27892;52.378;13.122;2023-04-19T01:01:36;3.17;;;2.57;;
42226;SDS011;27892;52.378;13.122;2023-04-19T01:04:03;2.73;;;2.50;;
42226;SDS011;27892;52.378;13.122;2023-04-19T01:06:29;3.23;;;2.70;;
42226;SDS011;27892;52.378;13.122;2023-04-19T01:08:55;2.73;;;2.53;;
42226;SDS011;27892;52.378;13.122;2023-04-19T01:11:22;2.63;;;2.30;;
42226;SDS011;27892;52.378;13.122;2023-04-19T01:13:48;3.00;;;2.80;;
42226;SDS011;27892;52.378;13.122;2023-04-19T01:16:14;2.70;;;2.40;;
42226;SDS011;27892;52.378;13.122;2023-04-19T01:18:39;3.40;;;3.10;;
42226;SDS011;27892;52.378;13.122;2023-04-19T01:21:06;3.67;;;2.70;;
42226;SDS011;27892;52.378;13.122;2023-04-19T01:23:32;2.60;;;2.40;;
42226;SDS011;27892;52.378;13.122;2023-04-19T01:25:58;2.23;;;2.00;;
42226;SDS011;27892;52.378;13.122;2023-04-19T01:28:26;2.57;;;2.37;;
42226;SDS011;27892;52.378;13.122;2023-04-19T01:30:51;3.20;;;2.50;;
42226;SDS011;27892;52.378;13.122;2023-04-19T01:33:18;3.23;;;2.83;;
42226;SDS011;27892;52.378;13.122;2023-04-19T01:35:45;3.60;;;2.40;;
42226;SDS011;27892;52.378;13.122;2023-04-19T01:38:12;2.97;;;2.67;;
42226;SDS011;27892;52.378;13.122;2023-04-19T01:40:38;3.57;;;2.77;;
42226;SDS011;27892;52.378;13.122;2023-04-19T01:43:03;2.90;;;2.70;;
42226;SDS011;27892;52.378;13.122;2023-04-19T01:45:30;3.43;;;2.70;;
42226;SDS011;27892;52.378;13.122;2023-04-19T01:47:58;2.40;;;2.20;;
42226;SDS011;27892;52.378;13.122;2023-04-19T01:50:28;3.70;;;2.50;;
42226;SDS011;27892;52.378;13.122;2023-04-19T01:52:54;2.50;;;2.30;;
42226;SDS011;27892;52.378;13.122;2023-04-19T01:55:20;2.83;;;2.57;;
42226;SDS011;27892;52.378;13.122;2023-04-19T01:57:46;3.50;;;2.43;;
42226;SDS011;27892;52.378;13.122;2023-04-19T02:00:11;2.53;;;2.33;;
42226;SDS011;27892;52.378;13.122;2023-04-19T02:02:37;2.67;;;2.17;;
42226;SDS011;27892;52.378;13.122;2023-04-19T02:05:06;2.53;;;2.33;;
42226;SDS011;27892;52.378;13.122;2023-04-19T02:07:32;2.43;;;2.27;;
42226;SDS011;27892;52.378;13.122;2023-04-19T02:09:58;2.60;;;2.40;;
42226;SDS011;27892;52.378;13.122;2023-04-19T02:12:27;2.40;;;2.20;;
42226;SDS011;27892;52.378;13.122;2023-04-19T02:14:55;2.63;;;2.37;;
42226;SDS011;27892;52.378;13.122;2023-04-19T02:17:24;2.97;;;2.40;;
42226;SDS011;27892;52.378;13.122;2023-04-19T02:19:49;3.10;;;2.30;;
42226;SDS011;27892;52.378;13.122;2023-04-19T02:22:15;3.40;;;3.10;;
42226;SDS011;27892;52.378;13.122;2023-04-19T02:24:41;3.00;;;2.80;;
42226;SDS011;27892;52.378;13.122;2023-04-19T02:27:07;2.60;;;2.40;;
42226;SDS011;27892;52.378;13.122;2023-04-19T02:29:33;2.70;;;2.50;;
42226;SDS011;27892;52.378;13.122;2023-04-19T02:31:58;2.77;;;2.50;;
42226;SDS011;27892;52.378;13.122;2023-04-19T02:34:24;2.63;;;2.43;;
42226;SDS011;27892;52.378;13.122;2023-04-19T02:36:51;2.40;;;2.30;;
42226;SDS011;27892;52.378;13.122;2023-04-19T02:39:17;2.67;;;2.30;;
42226;SDS011;27892;52.378;13.122;2023-04-19T02:41:43;2.70;;;2.50;;
42226;SDS011;27892;52.378;13.122;2023-04-19T02:44:08;2.70;;;2.50;;
42226;SDS011;27892;52.378;13.122;2023-04-19T02:46:34;2.47;;;2.27;;
42226;SDS011;27892;52.378;13.122;2023-04-19T02:49:00;2.30;;;2.10;;
42226;SDS011;27892;52.378;13.122;2023-04-19T02:51:44;2.20;;;2.10;;
42226;SDS011;27892;52.378;13.122;2023-04-19T02:54:28;3.37;;;3.07;;
42226;SDS011;27892;52.378;13.122;2023-04-19T02:56:54;2.70;;;2.50;;
42226;SDS011;27892;52.378;13.122;2023-04-19T02:59:21;3.17;;;2.27;;
42226;SDS011;27892;52.378;13.122;2023-04-19T03:01:47;3.07;;;2.73;;
42226;SDS011;27892;52.378;13.122;2023-04-19T03:04:12;2.77;;;2.43;;
42226;SDS011;27892;52.378;13.122;2023-04-19T03:06:38;2.60;;;2.40;;
42226;SDS011;27892;52.378;13.122;2023-04-19T03:09:03;2.50;;;2.30;;
42226;SDS011;27892;52.378;13.122;2023-04-19T03:11:29;2.70;;;2.50;;
42226;SDS011;27892;52.378;13.122;2023-04-19T03:13:55;3.20;;;2.43;;
42226;SDS011;27892;52.378;13.122;2023-04-19T03:16:21;2.90;;;2.60;;
42226;SDS011;27892;52.378;13.122;2023-04-19T03:18:46;3.03;;;2.27;;
42226;SDS011;27892;52.378;13.122;2023-04-19T03:21:12;2.30;;;2.10;;
42226;SDS011;27892;52.378;13.122;2023-04-19T03:23:37;2.50;;;2.27;;
42226;SDS011;27892;52.378;13.122;2023-04-19T03:26:03;2.53;;;2.20;;
42226;SDS011;27892;52.378;13.122;2023-04-19T03:28:29;1.77;;;1.60;;
42226;SDS011;27892;52.378;13.122;2023-04-19T03:30:54;2.10;;;1.93;;
42226;SDS011;27892;52.378;13.122;2023-04-19T03:33:20;2.63;;;2.43;;
42226;SDS011;27892;52.378;13.122;2023-04-19T03:35:46;2.97;;;2.00;;
42226;SDS011;27892;52.378;13.122;2023-04-19T03:38:11;3.40;;;2.50;;
42226;SDS011;27892;52.378;13.122;2023-04-19T03:40:37;4.73;;;2.60;;
42226;SDS011;27892;52.378;13.122;2023-04-19T03:43:03;2.07;;;1.97;;
42226;SDS011;27892;52.378;13.122;2023-04-19T03:45:29;2.33;;;2.17;;
42226;SDS011;27892;52.378;13.122;2023-04-19T03:47:54;2.20;;;2.00;;
42226;SDS011;27892;52.378;13.122;2023-04-19T03:50:20;2.23;;;2.07;;
42226;SDS011;27892;52.378;13.122;2023-04-19T03:52:46;3.33;;;1.90;;
42226;SDS011;27892;52.378;13.122;2023-04-19T03:55:11;2.77;;;2.20;;
42226;SDS011;27892;52.378;13.122;2023-04-19T03:57:38;2.50;;;2.30;;
42226;SDS011;27892;52.378;13.122;2023-04-19T04:00:04;2.50;;;2.30;;
42226;SDS011;27892;52.378;13.122;2023-04-19T04:02:35;3.50;;;2.53;;
42226;SDS011;27892;52.378;13.122;2023-04-19T04:05:02;2.40;;;2.20;;
42226;SDS011;27892;52.378;13.122;2023-04-19T04:07:27;2.27;;;2.07;;
42226;SDS011;27892;52.378;13.122;2023-04-19T04:09:53;3.33;;;2.43;;
42226;SDS011;27892;52.378;13.122;2023-04-19T04:12:19;2.77;;;2.20;;
42226;SDS011;27892;52.378;13.122;2023-04-19T04:14:44;2.70;;;2.30;;
42226;SDS011;27892;52.378;13.122;2023-04-19T04:17:10;3.43;;;2.60;;
42226;SDS011;27892;52.378;13.122;2023-04-19T04:19:35;2.70;;;2.47;;
42226;SDS011;27892;52.378;13.122;2023-04-19T04:22:01;4.77;;;2.93;;
42226;SDS011;27892;52.378;13.122;2023-04-19T04:24:27;3.30;;;2.50;;
42226;SDS011;27892;52.378;13.122;2023-04-19T04:26:55;3.20;;;2.53;;
42226;SDS011;27892;52.378;13.122;2023-04-19T04:29:22;4.50;;;2.73;;
42226;SDS011;27892;52.378;13.122;2023-04-19T04:31:47;2.77;;;2.57;;
42226;SDS011;27892;52.378;13.122;2023-04-19T04:34:13;3.57;;;2.90;;
42226;SDS011;27892;52.378;13.122;2023-04-19T04:36:38;3.40;;;2.90;;
42226;SDS011;27892;52.378;13.122;2023-04-19T04:39:05;3.90;;;3.03;;
42226;SDS011;27892;52.378;13.122;2023-04-19T04:41:34;4.37;;;2.80;;
42226;SDS011;27892;52.378;13.122;2023-04-19T04:44:00;3.30;;;3.00;;
42226;SDS011;27892;52.378;13.122;2023-04-19T04:46:28;3.43;;;2.60;;
42226;SDS011;27892;52.378;13.122;2023-04-19T04:48:54;3.53;;;2.60;;
42226;SDS011;27892;52.378;13.122;2023-04-19T04:51:19;3.73;;;2.60;;
42226;SDS011;27892;52.378;13.122;2023-04-19T04:53:45;3.13;;;2.83;;
42226;SDS011;27892;52.378;13.122;2023-04-19T04:56:11;3.90;;;2.63;;
42226;SDS011;27892;52.378;13.122;2023-04-19T04:58:36;4.03;;;2.80;;
42226;SDS011;27892;52.378;13.122;2023-04-19T05:01:02;4.33;;;2.50;;
42226;SDS011;27892;52.378;13.122;2023-04-19T05:03:28;3.77;;;2.90;;
42226;SDS011;27892;52.378;13.122;2023-04-19T05:05:54;3.37;;;2.70;;
42226;SDS011;27892;52.378;13.122;2023-04-19T05:08:20;5.17;;;3.00;;
42226;SDS011;27892;52.378;13.122;2023-04-19T05:10:46;3.60;;;2.73;;
42226;SDS011;27892;52.378;13.122;2023-04-19T05:13:11;3.00;;;2.70;;
42226;SDS011;27892;52.378;13.122;2023-04-19T05:15:37;3.93;;;3.10;;
42226;SDS011;27892;52.378;13.122;2023-04-19T05:18:03;3.43;;;2.90;;
42226;SDS011;27892;52.378;13.122;2023-04-19T05:20:29;3.87;;;2.63;;
42226;SDS011;27892;52.378;13.122;2023-04-19T05:22:55;5.00;;;2.80;;
42226;SDS011;27892;52.378;13.122;2023-04-19T05:25:22;5.43;;;2.90;;
42226;SDS011;27892;52.378;13.122;2023-04-19T05:27:48;3.80;;;2.87;;
42226;SDS011;27892;52.378;13.122;2023-04-19T05:30:13;4.20;;;2.60;;
42226;SDS011;27892;52.378;13.122;2023-04-19T05:32:39;3.63;;;2.70;;
42226;SDS011;27892;52.378;13.122;2023-04-19T05:35:06;2.97;;;2.47;;
42226;SDS011;27892;52.378;13.122;2023-04-19T05:37:32;3.07;;;2.40;;
42226;SDS011;27892;52.378;13.122;2023-04-19T05:39:58;2.63;;;2.10;;
42226;SDS011;27892;52.378;13.122;2023-04-19T05:42:23;3.13;;;2.47;;
42226;SDS011;27892;52.378;13.122;2023-04-19T05:44:49;3.43;;;2.20;;
42226;SDS011;27892;52.378;13.122;2023-04-19T05:47:15;3.27;;;2.00;;
42226;SDS011;27892;52.378;13.122;2023-04-19T05:49:41;1.93;;;1.80;;
42226;SDS011;27892;52.378;13.122;2023-04-19T05:52:07;5.40;;;2.30;;
42226;SDS011;27892;52.378;13.122;2023-04-19T05:54:32;2.03;;;1.80;;
42226;SDS011;27892;52.378;13.122;2023-04-19T05:57:00;2.30;;;1.80;;
42226;SDS011;27892;52.378;13.122;2023-04-19T05:59:27;2.67;;;2.03;;
42226;SDS011;27892;52.378;13.122;2023-04-19T06:01:52;2.10;;;1.90;;
42226;SDS011;27892;52.378;13.122;2023-04-19T06:04:20;3.33;;;1.80;;
42226;SDS011;27892;52.378;13.122;2023-04-19T06:06:46;1.83;;;1.70;;
42226;SDS011;27892;52.378;13.122;2023-04-19T06:09:11;2.78;;;1.60;;
42226;SDS011;27892;52.378;13.122;2023-04-19T06:11:38;1.95;;;1.85;;
42226;SDS011;27892;52.378;13.122;2023-04-19T06:14:04;2.45;;;1.75;;
42226;SDS011;27892;52.378;13.122;2023-04-19T06:16:30;2.58;;;1.65;;
42226;SDS011;27892;52.378;13.122;2023-04-19T06:18:56;4.18;;;1.80;;
42226;SDS011;27892;52.378;13.122;2023-04-19T06:21:21;2.95;;;1.83;;
42226;SDS011;27892;52.378;13.122;2023-04-19T06:23:47;3.50;;;1.90;;
42226;SDS011;27892;52.378;13.122;2023-04-19T06:26:12;1.95;;;1.40;;
42226;SDS011;27892;52.378;13.122;2023-04-19T06:28:38;2.38;;;1.90;;
42226;SDS011;27892;52.378;13.122;2023-04-19T06:31:04;2.00;;;1.80;;
42226;SDS011;27892;52.378;13.122;2023-04-19T06:33:30;2.00;;;1.80;;
42226;SDS011;27892;52.378;13.122;2023-04-19T06:35:55;2.13;;;1.63;;
42226;SDS011;27892;52.378;13.122;2023-04-19T06:38:21;2.83;;;1.90;;
42226;SDS011;27892;52.378;13.122;2023-04-19T06:40:47;1.90;;;1.70;;
42226;SDS011;27892;52.378;13.122;2023-04-19T06:43:12;2.35;;;1.65;;
42226;SDS011;27892;52.378;13.122;2023-04-19T06:45:38;2.50;;;1.73;;
42226;SDS011;27892;52.378;13.122;2023-04-19T06:48:04;1.55;;;1.42;;
42226;SDS011;27892;52.378;13.122;2023-04-19T06:50:30;3.33;;;2.00;;
42226;SDS011;27892;52.378;13.122;2023-04-19T06:52:55;1.90;;;1.70;;
42226;SDS011;27892;52.378;13.122;2023-04-19T06:55:21;2.08;;;1.50;;
42226;SDS011;27892;52.378;13.122;2023-04-19T06:57:47;2.25;;;1.58;;
42226;SDS011;27892;52.378;13.122;2023-04-19T07:00:12;1.52;;;1.30;;
42226;SDS011;27892;52.378;13.122;2023-04-19T07:02:38;1.90;;;1.70;;
42226;SDS011;27892;52.378;13.122;2023-04-19T07:05:04;2.10;;;1.50;;
42226;SDS011;27892;52.378;13.122;2023-04-19T07:07:31;2.03;;;1.63;;
42226;SDS011;27892;52.378;13.122;2023-04-19T07:09:57;2.10;;;1.70;;
42226;SDS011;27892;52.378;13.122;2023-04-19T07:12:23;1.83;;;1.70;;
42226;SDS011;27892;52.378;13.122;2023-04-19T07:14:48;1.63;;;1.52;;
42226;SDS011;27892;52.378;13.122;2023-04-19T07:17:20;2.42;;;1.60;;
42226;SDS011;27892;52.378;13.122;2023-04-19T07:19:47;1.95;;;1.73;;
42226;SDS011;27892;52.378;13.122;2023-04-19T07:22:13;1.77;;;1.50;;
42226;SDS011;27892;52.378;13.122;2023-04-19T07:24:39;4.88;;;1.95;;
42226;SDS011;27892;52.378;13.122;2023-04-19T07:27:06;1.70;;;1.60;;
42226;SDS011;27892;52.378;13.122;2023-04-19T07:29:35;2.45;;;1.60;;
42226;SDS011;27892;52.378;13.122;2023-04-19T07:32:01;1.67;;;1.50;;
42226;SDS011;27892;52.378;13.122;2023-04-19T07:34:27;2.33;;;1.67;;
42226;SDS011;27892;52.378;13.122;2023-04-19T07:36:53;2.05;;;1.63;;
42226;SDS011;27892;52.378;13.122;2023-04-19T07:39:18;1.95;;;1.58;;
42226;SDS011;27892;52.378;13.122;2023-04-19T07:41:44;2.70;;;1.52;;
42226;SDS011;27892;52.378;13.122;2023-04-19T07:44:10;2.53;;;1.90;;
42226;SDS011;27892;52.378;13.122;2023-04-19T07:46:37;2.03;;;1.50;;
42226;SDS011;27892;52.378;13.122;2023-04-19T07:49:03;1.70;;;1.52;;
42226;SDS011;27892;52.378;13.122;2023-04-19T07:51:28;3.40;;;2.10;;
42226;SDS011;27892;52.378;13.122;2023-04-19T07:53:54;1.60;;;1.50;;
42226;SDS011;27892;52.378;13.122;2023-04-19T07:56:20;1.60;;;1.50;;
42226;SDS011;27892;52.378;13.122;2023-04-19T07:58:47;2.10;;;1.85;;
42226;SDS011;27892;52.378;13.122;2023-04-19T08:01:12;3.53;;;1.55;;
42226;SDS011;27892;52.378;13.122;2023-04-19T08:03:38;2.55;;;1.90;;
42226;SDS011;27892;52.378;13.122;2023-04-19T08:06:04;3.05;;;1.77;;
42226;SDS011;27892;52.378;13.122;2023-04-19T08:08:32;2.67;;;1.52;;
42226;SDS011;27892;52.378;13.122;2023-04-19T08:10:58;1.95;;;1.75;;
42226;SDS011;27892;52.378;13.122;2023-04-19T08:13:23;1.73;;;1.33;;
42226;SDS011;27892;52.378;13.122;2023-04-19T08:15:49;3.05;;;1.95;;
42226;SDS011;27892;52.378;13.122;2023-04-19T08:18:15;2.90;;;1.70;;
42226;SDS011;27892;52.378;13.122;2023-04-19T08:20:40;2.58;;;1.90;;
42226;SDS011;27892;52.378;13.122;2023-04-19T08:23:06;2.97;;;1.85;;
42226;SDS011;27892;52.378;13.122;2023-04-19T08:25:33;2.65;;;1.77;;
42226;SDS011;27892;52.378;13.122;2023-04-19T08:27:59;1.95;;;1.85;;
42226;SDS011;27892;52.378;13.122;2023-04-19T08:30:25;2.38;;;1.90;;
42226;SDS011;27892;52.378;13.122;2023-04-19T08:32:50;2.50;;;1.77;;
42226;SDS011;27892;52.378;13.122;2023-04-19T08:35:16;1.95;;;1.67;;
42226;SDS011;27892;52.378;13.122;2023-04-19T08:37:42;2.03;;;1.90;;
42226;SDS011;27892;52.378;13.122;2023-04-19T08:40:07;2.13;;;1.70;;
42226;SDS011;27892;52.378;13.122;2023-04-19T08:42:35;2.33;;;2.08;;
42226;SDS011;27892;52.378;13.122;2023-04-19T08:45:01;1.98;;;1.80;;
42226;SDS011;27892;52.378;13.122;2023-04-19T08:47:33;3.17;;;2.35;;
42226;SDS011;27892;52.378;13.122;2023-04-19T08:50:00;3.30;;;2.10;;
42226;SDS011;27892;52.378;13.122;2023-04-19T08:52:28;2.50;;;2.30;;
42226;SDS011;27892;52.378;13.122;2023-04-19T08:54:57;2.60;;;2.00;;
42226;SDS011;27892;52.378;13.122;2023-04-19T08:57:25;1.98;;;1.73;;
42226;SDS011;27892;52.378;13.122;2023-04-19T08:59:51;3.70;;;2.25;;
42226;SDS011;27892;52.378;13.122;2023-04-19T09:02:22;3.35;;;2.40;;
42226;SDS011;27892;52.378;13.122;2023-04-19T09:04:48;2.95;;;2.17;;
42226;SDS011;27892;52.378;13.122;2023-04-19T09:07:23;3.42;;;2.33;;
42226;SDS011;27892;52.378;13.122;2023-04-19T09:10:06;4.35;;;2.10;;
42226;SDS011;27892;52.378;13.122;2023-04-19T09:12:33;3.03;;;2.25;;
42226;SDS011;27892;52.378;13.122;2023-04-19T09:15:00;2.72;;;2.00;;
42226;SDS011;27892;52.378;13.122;2023-04-19T09:17:28;3.53;;;2.20;;
42226;SDS011;27892;52.378;13.122;2023-04-19T09:19:55;2.03;;;1.88;;
42226;SDS011;27892;52.378;13.122;2023-04-19T09:22:21;3.17;;;2.22;;
42226;SDS011;27892;52.378;13.122;2023-04-19T09:24:47;3.35;;;2.20;;
42226;SDS011;27892;52.378;13.122;2023-04-19T09:29:54;5.88;;;2.38;;
42226;SDS011;27892;52.378;13.122;2023-04-19T09:32:21;2.63;;;2.13;;
42226;SDS011;27892;52.378;13.122;2023-04-19T09:37:23;3.05;;;2.10;;
42226;SDS011;27892;52.378;13.122;2023-04-19T09:39:51;2.85;;;2.25;;
42226;SDS011;27892;52.378;13.122;2023-04-19T09:42:23;2.22;;;2.03;;
42226;SDS011;27892;52.378;13.122;2023-04-19T09:45:08;2.33;;;2.10;;
42226;SDS011;27892;52.378;13.122;2023-04-19T09:47:34;2.15;;;2.00;;
42226;SDS011;27892;52.378;13.122;2023-04-19T09:50:18;3.83;;;2.60;;
42226;SDS011;27892;52.378;13.122;2023-04-19T09:52:43;4.35;;;2.50;;
42226;SDS011;27892;52.378;13.122;2023-04-19T09:55:11;3.20;;;2.15;;
42226;SDS011;27892;52.378;13.122;2023-04-19T09:57:36;2.22;;;2.03;;
42226;SDS011;27892;52.378;13.122;2023-04-19T10:00:02;2.53;;;2.20;;
42226;SDS011;27892;52.378;13.122;2023-04-19T10:02:32;3.10;;;2.22;;
42226;SDS011;27892;52.378;13.122;2023-04-19T10:04:59;3.97;;;2.55;;
42226;SDS011;27892;52.378;13.122;2023-04-19T10:07:26;7.05;;;2.70;;
42226;SDS011;27892;52.378;13.122;2023-04-19T10:09:54;3.10;;;2.43;;
42226;SDS011;27892;52.378;13.122;2023-04-19T10:12:25;3.55;;;2.45;;
42226;SDS011;27892;52.378;13.122;2023-04-19T10:14:54;3.00;;;2.30;;
42226;SDS011;27892;52.378;13.122;2023-04-19T10:17:23;2.47;;;2.10;;
42226;SDS011;27892;52.378;13.122;2023-04-19T10:20:00;3.58;;;2.17;;
42226;SDS011;27892;52.378;13.122;2023-04-19T10:22:32;2.20;;;2.00;;
42226;SDS011;27892;52.378;13.122;2023-04-19T10:27:38;3.28;;;2.13;;
42226;SDS011;27892;52.378;13.122;2023-04-19T10:30:05;3.17;;;2.35;;
42226;SDS011;27892;52.378;13.122;2023-04-19T10:32:41;3.00;;;2.42;;
42226;SDS011;27892;52.378;13.122;2023-04-19T10:35:19;3.22;;;2.20;;
42226;SDS011;27892;52.378;13.122;2023-04-19T10:43:19;2.17;;;1.98;;
42226;SDS011;27892;52.378;13.122;2023-04-19T10:45:46;3.13;;;2.05;;
42226;SDS011;27892;52.378;13.122;2023-04-19T10:51:16;2.35;;;2.17;;
42226;SDS011;27892;52.378;13.122;2023-04-19T10:54:04;3.83;;;2.50;;
42226;SDS011;27892;52.378;13.122;2023-04-19T10:59:37;3.63;;;2.58;;
42226;SDS011;27892;52.378;13.122;2023-04-19T11:07:15;3.70;;;2.60;;
42226;SDS011;27892;52.378;13.122;2023-04-19T11:09:45;3.95;;;2.53;;
42226;SDS011;27892;52.378;13.122;2023-04-19T11:12:13;3.53;;;2.67;;
42226;SDS011;27892;52.378;13.122;2023-04-19T11:14:46;2.83;;;2.40;;
42226;SDS011;27892;52.378;13.122;2023-04-19T11:19:52;3.53;;;2.65;;
42226;SDS011;27892;52.378;13.122;2023-04-19T11:22:44;4.15;;;2.40;;
42226;SDS011;27892;52.378;13.122;2023-04-19T11:25:11;3.10;;;2.30;;
42226;SDS011;27892;52.378;13.122;2023-04-19T11:27:38;3.85;;;2.33;;
42226;SDS011;27892;52.378;13.122;2023-04-19T11:32:52;3.05;;;2.33;;
42226;SDS011;27892;52.378;13.122;2023-04-19T11:35:20;3.45;;;2.40;;
42226;SDS011;27892;52.378;13.122;2023-04-19T11:37:47;3.60;;;2.40;;
42226;SDS011;27892;52.378;13.122;2023-04-19T11:40:14;3.63;;;2.30;;
42226;SDS011;27892;52.378;13.122;2023-04-19T11:42:41;2.92;;;2.40;;
42226;SDS011;27892;52.378;13.122;2023-04-19T11:45:08;3.40;;;2.40;;
42226;SDS011;27892;52.378;13.122;2023-04-19T11:47:34;4.47;;;2.40;;
42226;SDS011;27892;52.378;13.122;2023-04-19T11:50:30;2.75;;;2.40;;
42226;SDS011;27892;52.378;13.122;2023-04-19T11:52:58;2.77;;;2.20;;
42226;SDS011;27892;52.378;13.122;2023-04-19T11:55:33;3.67;;;2.23;;
42226;SDS011;27892;52.378;13.122;2023-04-19T11:57:59;3.70;;;2.40;;
42226;SDS011;27892;52.378;13.122;2023-04-19T12:00:26;4.00;;;2.40;;
42226;SDS011;27892;52.378;13.122;2023-04-19T12:02:53;3.00;;;2.30;;
42226;SDS011;27892;52.378;13.122;2023-04-19T12:05:19;3.87;;;2.17;;
42226;SDS011;27892;52.378;13.122;2023-04-19T12:08:04;2.60;;;2.33;;
42226;SDS011;27892;52.378;13.122;2023-04-19T12:10:33;5.27;;;2.37;;
42226;SDS011;27892;52.378;13.122;2023-04-19T12:13:00;3.83;;;2.30;;
42226;SDS011;27892;52.378;13.122;2023-04-19T12:15:43;7.30;;;2.67;;
42226;SDS011;27892;52.378;13.122;2023-04-19T12:18:10;3.63;;;2.40;;
42226;SDS011;27892;52.378;13.122;2023-04-19T12:20:37;3.17;;;2.07;;
42226;SDS011;27892;52.378;13.122;2023-04-19T12:23:09;2.10;;;1.90;;
42226;SDS011;27892;52.378;13.122;2023-04-19T12:25:41;2.83;;;2.30;;
42226;SDS011;27892;52.378;13.122;2023-04-19T12:28:08;2.73;;;2.20;;
42226;SDS011;27892;52.378;13.122;2023-04-19T12:30:37;2.30;;;2.10;;
42226;SDS011;27892;52.378;13.122;2023-04-19T12:33:03;3.03;;;2.20;;
42226;SDS011;27892;52.378;13.122;2023-04-19T12:35:29;3.10;;;2.27;;
42226;SDS011;27892;52.378;13.122;2023-04-19T12:37:56;3.80;;;2.45;;
42226;SDS011;27892;52.378;13.122;2023-04-19T12:40:23;5.17;;;2.60;;
42226;SDS011;27892;52.378;13.122;2023-04-19T12:42:50;4.55;;;2.40;;
42226;SDS011;27892;52.378;13.122;2023-04-19T12:45:16;2.63;;;2.40;;
42226;SDS011;27892;52.378;13.122;2023-04-19T12:47:42;3.43;;;2.23;;
42226;SDS011;27892;52.378;13.122;2023-04-19T12:50:11;4.78;;;2.70;;
42226;SDS011;27892;52.378;13.122;2023-04-19T12:52:41;4.33;;;2.20;;
42226;SDS011;27892;52.378;13.122;2023-04-19T12:55:07;3.13;;;2.40;;
42226;SDS011;27892;52.378;13.122;2023-04-19T12:57:33;3.28;;;2.20;;
42226;SDS011;27892;52.378;13.122;2023-04-19T12:59:59;2.58;;;2.38;;
42226;SDS011;27892;52.378;13.122;2023-04-19T13:02:25;3.00;;;2.40;;
42226;SDS011;27892;52.378;13.122;2023-04-19T13:04:50;2.47;;;2.03;;
42226;SDS011;27892;52.378;13.122;2023-04-19T13:07:16;4.10;;;2.60;;
42226;SDS011;27892;52.378;13.122;2023-04-19T13:09:42;2.67;;;2.23;;
42226;SDS011;27892;52.378;13.122;2023-04-19T13:12:08;3.27;;;2.60;;
42226;SDS011;27892;52.378;13.122;2023-04-19T13:14:33;3.07;;;2.70;;
42226;SDS011;27892;52.378;13.122;2023-04-19T13:16:59;4.50;;;2.83;;
42226;SDS011;27892;52.378;13.122;2023-04-19T13:19:25;5.23;;;3.10;;
42226;SDS011;27892;52.378;13.122;2023-04-19T13:21:51;7.18;;;3.40;;
42226;SDS011;27892;52.378;13.122;2023-04-19T13:24:16;3.22;;;2.38;;
42226;SDS011;27892;52.378;13.122;2023-04-19T13:26:42;5.50;;;2.60;;
42226;SDS011;27892;52.378;13.122;2023-04-19T13:29:10;5.30;;;2.83;;
42226;SDS011;27892;52.378;13.122;2023-04-19T13:31:36;6.18;;;2.83;;
42226;SDS011;27892;52.378;13.122;2023-04-19T13:34:01;4.22;;;2.78;;
42226;SDS011;27892;52.378;13.122;2023-04-19T13:36:27;4.32;;;3.28;;
42226;SDS011;27892;52.378;13.122;2023-04-19T13:38:53;3.67;;;3.10;;
42226;SDS011;27892;52.378;13.122;2023-04-19T13:41:19;5.28;;;3.35;;
42226;SDS011;27892;52.378;13.122;2023-04-19T13:43:45;5.20;;;3.45;;
42226;SDS011;27892;52.378;13.122;2023-04-19T13:46:11;3.65;;;2.83;;
42226;SDS011;27892;52.378;13.122;2023-04-19T13:48:37;4.13;;;2.60;;
42226;SDS011;27892;52.378;13.122;2023-04-19T13:51:03;6.35;;;2.90;;
42226;SDS011;27892;52.378;13.122;2023-04-19T13:53:30;8.43;;;3.65;;
42226;SDS011;27892;52.378;13.122;2023-04-19T13:55:55;3.90;;;3.00;;
42226;SDS011;27892;52.378;13.122;2023-04-19T13:58:21;3.10;;;2.80;;
42226;SDS011;27892;52.378;13.122;2023-04-19T14:00:48;5.57;;;3.33;;
42226;SDS011;27892;52.378;13.122;2023-04-19T14:03:15;3.57;;;2.90;;
42226;SDS011;27892;52.378;13.122;2023-04-19T14:05:40;3.53;;;2.83;;
42226;SDS011;27892;52.378;13.122;2023-04-19T14:08:06;3.33;;;2.57;;
42226;SDS011;27892;52.378;13.122;2023-04-19T14:10:33;5.23;;;3.30;;
42226;SDS011;27892;52.378;13.122;2023-04-19T14:12:58;4.93;;;3.20;;
42226;SDS011;27892;52.378;13.122;2023-04-19T14:15:24;4.43;;;2.83;;
42226;SDS011;27892;52.378;13.122;2023-04-19T14:17:50;3.73;;;2.83;;
42226;SDS011;27892;52.378;13.122;2023-04-19T14:20:16;5.03;;;3.00;;
42226;SDS011;27892;52.378;13.122;2023-04-19T14:22:42;4.90;;;2.77;;
42226;SDS011;27892;52.378;13.122;2023-04-19T14:25:10;4.83;;;3.27;;
42226;SDS011;27892;52.378;13.122;2023-04-19T14:27:39;4.40;;;2.70;;
42226;SDS011;27892;52.378;13.122;2023-04-19T14:30:07;3.07;;;2.60;;
42226;SDS011;27892;52.378;13.122;2023-04-19T14:32:33;4.50;;;2.90;;
42226;SDS011;27892;52.378;13.122;2023-04-19T14:35:00;3.30;;;2.77;;
42226;SDS011;27892;52.378;13.122;2023-04-19T14:37:26;2.47;;;2.20;;
42226;SDS011;27892;52.378;13.122;2023-04-19T14:39:52;2.73;;;2.40;;
42226;SDS011;27892;52.378;13.122;2023-04-19T14:42:17;2.33;;;2.13;;
42226;SDS011;27892;52.378;13.122;2023-04-19T14:44:43;4.70;;;2.67;;
42226;SDS011;27892;52.378;13.122;2023-04-19T14:47:10;3.50;;;2.30;;
42226;SDS011;27892;52.378;13.122;2023-04-19T14:49:36;4.00;;;2.40;;
42226;SDS011;27892;52.378;13.122;2023-04-19T14:52:02;2.20;;;2.00;;
42226;SDS011;27892;52.378;13.122;2023-04-19T14:54:28;3.47;;;2.20;;
42226;SDS011;27892;52.378;13.122;2023-04-19T14:56:54;2.83;;;2.23;;
42226;SDS011;27892;52.378;13.122;2023-04-19T14:59:20;4.30;;;2.40;;
42226;SDS011;27892;52.378;13.122;2023-04-19T15:01:46;2.70;;;2.50;;